Ludowici, GA

4:08 PM EST en Febrero 27, 2015 (GMT -0500)
Glynco Jetport | Change Station
CLOSE
Current Station
Aeropuerto
Location: Brunswick,
Altura: 26 ft
Estaciones meteorológicas cercanas

Alt 26 ft 31.26 °N, 81.47 °W | Updated 13 minutes ago

Parcialmente nublado
Parcialmente nublado
50 ° F
Sensación térmica 50 ° F
N
15
Viento Variable Viento desde NE
Gusts 18 mph

Hoy
Alta -- | Baja -- ° F
--% Posibilidad de precipitaciones
Ayer
Alta -- | Baja -- ° F
Precip. -- pul
6:56 AM 6:23 PM
Gibosa creciente, 71% visible
Presión 30.34 pul
Visibilidad 10.0 Millas
Nubes Despejado
Punto de rocío 32 ° F
Humedad 50%
Precipitaciones 0.00 pul
Espesor de la nieve No disponible.
UV 3 de una escala de 12
Polen 7.50 de una escala de 12
Calidad del aire No disponible.
Flu Activity No disponible.
METAR KBQK 272055Z AUTO 04013G16KT 10SM CLR 10/00 A3034 RMK AO1

More Conditions Fewer Conditions

Presión 30.34 pul
Visibilidad 10.0 Millas
Nubes Despejado
Punto de rocío 32 ° F
Humedad 50%
Precipitaciones 0.00 pul
Espesor de la nieve No disponible.
UV 3 de una escala de 12
Polen 7.50 de una escala de 12
Calidad del aire No disponible.
Flu Activity No disponible.
METAR KBQK 272055Z AUTO 04013G16KT 10SM CLR 10/00 A3034 RMK AO1

More Conditions Fewer Conditions

10-Day Weather Forecast

Almanac

Astronomía

Feb. 27, 2015 Salida Puesta
Hora real
Crepúsculo civil
Crepúsculo náutico
Crepúsculo astronómico
Luna
Horas de luz
Horas de luz
Tomorrow will be .
, % of the Moon is Illuminated

Extremos de hoy

Máximos del estado Bajos del estado

Community

WunderPhotos

Upload Photos

1,800,828 ¡fotos cargadas!

WunderBlogs® & News

Nearby

Calidad del aire

  Calidad del aire Índice AQ Contaminante
Not available.

Grosos de nieve

Estación Profundido Altura

Actividad de terremotos

Ciudad Distance Mag. Tiempo y dato
Magnitud mínima muestra es 2,5.

Temperaturas de aguas costeras

Lugar Temperatura

Estaciones meteorológicas cercanas